createdAt,value
2023-01-20T00:00:17.047Z,500.00
2023-01-20T00:01:17.038Z,516.00
2023-01-20T00:02:22.923Z,536.00
2023-01-20T00:03:23.376Z,532.00
2023-01-20T00:04:18.867Z,504.00
2023-01-20T00:05:19.371Z,433.00
2023-01-20T00:06:21.526Z,402.00
2023-01-20T03:08:26.531Z,500.00
2023-01-20T03:09:27.313Z,500.00
2023-01-20T03:10:27.631Z,500.00
2023-01-20T03:13:16.068Z,500.00
2023-01-20T03:14:15.923Z,500.00
2023-01-20T03:15:17.629Z,500.00
2023-01-20T03:16:16.563Z,500.00
2023-01-20T03:17:16.501Z,500.00
2023-01-20T03:18:16.427Z,500.00
2023-01-20T03:19:17.865Z,461.00
2023-01-20T03:20:17.137Z,402.00
2023-01-20T03:21:16.271Z,400.00
2023-01-20T03:22:16.200Z,400.00
2023-01-20T03:23:16.569Z,400.00
2023-01-20T03:24:16.115Z,400.00
2023-01-20T03:25:17.925Z,400.00
2023-01-20T03:26:16.012Z,400.00
2023-01-20T03:27:15.929Z,400.00
2023-01-20T03:28:16.427Z,400.00
2023-01-20T03:29:16.280Z,400.00
2023-01-20T03:30:15.756Z,400.00
2023-01-20T03:31:16.818Z,400.00
2023-01-20T03:32:15.646Z,400.00
2023-01-20T03:33:16.932Z,414.00
2023-01-20T03:34:18.565Z,414.00
2023-01-20T03:35:15.921Z,414.00
2023-01-20T03:36:14.388Z,409.00
2023-01-20T03:37:15.695Z,404.00
2023-01-20T03:38:16.915Z,400.00
2023-01-20T03:39:15.696Z,400.00
2023-01-20T03:40:15.429Z,400.00
2023-01-20T03:41:15.287Z,400.00
2023-01-20T03:42:15.217Z,446.00
2023-01-20T03:43:16.738Z,505.00
2023-01-20T03:44:17.712Z,499.00
2023-01-20T03:45:14.389Z,460.00
2023-01-20T03:46:15.034Z,431.00
2023-01-20T03:47:15.297Z,424.00
2023-01-20T03:48:14.867Z,423.00
2023-01-20T03:49:14.803Z,406.00
2023-01-20T03:50:15.428Z,400.00
2023-01-20T03:51:17.609Z,400.00
2023-01-20T03:52:15.415Z,400.00
2023-01-20T03:53:36.213Z,400.00
2023-01-20T03:54:15.567Z,400.00
2023-01-20T03:55:15.411Z,403.00
2023-01-20T03:56:16.061Z,411.00
2023-01-20T03:57:18.896Z,420.00
2023-01-20T03:58:14.548Z,401.00
2023-01-20T03:59:16.210Z,410.00
2023-01-20T04:00:13.412Z,403.00
2023-01-20T04:01:19.940Z,412.00
2023-01-20T04:02:13.655Z,400.00
2023-01-20T04:03:14.687Z,400.00
2023-01-20T04:04:14.401Z,400.00
2023-01-20T04:05:14.418Z,400.00
2023-01-20T04:06:14.065Z,400.00
2023-01-20T04:07:13.990Z,400.00
2023-01-20T04:08:13.923Z,400.00
2023-01-20T04:09:32.147Z,400.00
2023-01-20T04:10:13.790Z,400.00
2023-01-20T04:11:14.041Z,400.00
2023-01-20T04:12:13.705Z,400.00
2023-01-20T04:13:15.452Z,400.00
2023-01-20T04:14:12.697Z,400.00
2023-01-20T04:15:13.691Z,401.00
2023-01-20T04:16:13.465Z,400.00
2023-01-20T04:17:13.387Z,400.00
2023-01-20T04:18:13.366Z,400.00
2023-01-20T04:19:13.815Z,400.00
2023-01-20T04:20:12.251Z,400.00
2023-01-20T04:21:13.906Z,400.00
2023-01-20T04:22:13.108Z,400.00
2023-01-20T04:23:13.038Z,400.00
2023-01-20T04:24:12.967Z,400.00
2023-01-20T04:25:14.708Z,400.00
2023-01-20T04:26:12.216Z,400.00
2023-01-20T04:27:13.121Z,400.00
2023-01-20T04:28:12.760Z,400.00
2023-01-20T04:29:13.443Z,400.00
2023-01-20T04:30:13.174Z,480.00
2023-01-20T04:31:24.985Z,567.00
2023-01-20T04:32:14.891Z,570.00
2023-01-20T04:33:11.674Z,573.00
2023-01-20T04:34:13.357Z,611.00
2023-01-20T04:35:13.155Z,730.00
2023-01-20T04:36:12.020Z,1066.00
2023-01-20T04:37:17.391Z,1525.00
2023-01-20T04:38:12.382Z,579.00
2023-01-20T04:39:12.339Z,628.00
2023-01-20T04:40:20.153Z,784.00
2023-01-20T04:41:12.210Z,579.00
2023-01-20T04:42:13.807Z,633.00
2023-01-20T04:43:11.441Z,583.00
2023-01-20T04:44:12.062Z,645.00
2023-01-20T04:45:12.703Z,903.00
2023-01-20T04:46:11.964Z,1347.00
2023-01-20T04:47:11.866Z,1952.00
2023-01-20T04:48:12.118Z,2006.00
2023-01-20T04:49:11.740Z,1921.00
2023-01-20T04:50:12.635Z,1892.00
2023-01-20T04:51:11.609Z,1865.00
2023-01-20T04:52:11.838Z,1886.00
2023-01-20T04:53:11.986Z,1937.00
2023-01-20T04:54:13.694Z,2039.00
2023-01-20T04:55:12.664Z,2198.00
2023-01-20T04:56:11.432Z,2203.00
2023-01-20T04:57:12.351Z,2209.00
2023-01-20T04:58:16.644Z,2261.00
2023-01-20T04:59:14.196Z,2210.00
2023-01-20T05:00:11.287Z,2214.00
2023-01-20T05:01:11.119Z,2258.00
2023-01-20T05:02:11.000Z,2351.00
2023-01-20T05:03:10.951Z,2449.00
2023-01-20T05:04:11.125Z,2575.00
2023-01-20T05:05:10.788Z,2769.00
2023-01-20T05:06:10.735Z,3007.00
2023-01-20T05:07:10.954Z,3142.00
2023-01-20T05:08:13.974Z,3228.00
2023-01-20T05:09:10.062Z,3231.00
2023-01-20T05:10:13.034Z,3251.00
2023-01-20T05:11:32.395Z,3235.00
2023-01-20T05:12:11.551Z,3234.00
2023-01-20T05:13:11.494Z,3239.00
2023-01-20T05:14:09.382Z,3239.00
2023-01-20T05:15:10.678Z,3277.00
2023-01-20T05:16:10.501Z,3340.00
2023-01-20T05:17:33.129Z,3380.00
2023-01-20T05:18:10.250Z,3231.00
2023-01-20T05:19:11.949Z,3235.00
2023-01-20T05:20:12.773Z,3157.00
2023-01-20T05:21:11.473Z,3126.00
2023-01-20T05:22:35.888Z,3066.00
2023-01-20T05:23:10.090Z,3203.00
2023-01-20T05:24:10.277Z,3131.00
2023-01-20T05:25:09.858Z,3124.00
2023-01-20T05:26:10.444Z,3123.00
2023-01-20T05:27:09.720Z,3150.00
2023-01-20T05:28:09.683Z,3073.00
2023-01-20T05:29:09.635Z,3088.00
2023-01-20T05:30:09.865Z,3108.00
2023-01-20T05:31:10.578Z,3096.00
2023-01-20T05:32:09.441Z,3108.00
2023-01-20T05:33:09.751Z,3131.00
2023-01-20T05:34:10.725Z,3136.00
2023-01-20T05:36:37.917Z,500.00
2023-01-20T05:37:38.844Z,500.00
2023-01-20T05:38:39.688Z,500.00
2023-01-20T05:39:39.175Z,500.00
2023-01-20T05:40:39.047Z,500.00
2023-01-20T05:41:38.631Z,500.00
2023-01-20T05:42:38.958Z,500.00
2023-01-20T05:43:39.013Z,500.00
2023-01-20T05:44:38.500Z,500.00
2023-01-20T05:45:38.961Z,514.00
2023-01-20T05:46:38.400Z,532.00
2023-01-20T05:47:38.306Z,582.00
2023-01-20T05:48:38.240Z,633.00
2023-01-20T05:49:44.277Z,706.00
2023-01-20T05:54:21.697Z,500.00
2023-01-20T05:55:22.596Z,500.00
2023-01-20T05:56:22.387Z,500.00
2023-01-20T05:57:22.327Z,500.00
2023-01-20T05:58:22.195Z,500.00
2023-01-20T05:59:22.279Z,494.00
2023-01-20T06:00:22.075Z,498.00
2023-01-20T06:01:22.010Z,498.00
2023-01-20T06:02:22.029Z,500.00
2023-01-20T06:03:21.900Z,498.00
2023-01-20T06:04:21.756Z,500.00
2023-01-20T06:05:21.666Z,504.00
2023-01-20T06:06:21.590Z,531.00
2023-01-20T06:07:21.613Z,568.00
2023-01-20T06:08:21.577Z,1116.00
2023-01-20T06:09:21.506Z,1485.00
2023-01-20T06:10:21.341Z,1952.00
2023-01-20T06:11:21.211Z,1786.00
2023-01-20T06:12:21.221Z,1857.00
2023-01-20T06:13:21.126Z,1601.00
2023-01-20T06:14:21.303Z,1844.00
2023-01-20T06:15:20.918Z,1655.00
2023-01-20T06:16:20.923Z,1719.00
2023-01-20T06:17:20.720Z,1342.00
2023-01-20T06:18:20.646Z,970.00
2023-01-20T06:19:20.737Z,1056.00
2023-01-20T06:20:20.664Z,784.00
2023-01-20T06:21:20.717Z,528.00
2023-01-20T06:22:20.396Z,669.00
2023-01-20T06:23:20.374Z,640.00
2023-01-20T06:24:20.263Z,739.00
2023-01-20T06:25:20.187Z,769.00
2023-01-20T06:26:20.091Z,636.00
2023-01-20T06:27:38.481Z,528.00
2023-01-20T06:28:20.430Z,400.00
2023-01-20T06:29:20.980Z,400.00
2023-01-20T06:30:41.065Z,400.00
2023-01-20T06:31:21.056Z,528.00
2023-01-20T06:34:16.728Z,500.00
2023-01-20T06:36:43.844Z,500.00
2023-01-20T06:37:45.563Z,500.00
2023-01-20T06:38:44.542Z,500.00
2023-01-20T06:39:47.222Z,500.00
2023-01-20T06:40:44.462Z,500.00
2023-01-20T06:41:44.383Z,500.00
2023-01-20T06:42:44.357Z,500.00
2023-01-20T06:43:44.281Z,500.00
2023-01-20T06:44:44.372Z,500.00
2023-01-20T06:45:44.479Z,530.00
2023-01-20T06:46:45.706Z,527.00
2023-01-20T06:47:43.995Z,527.00
2023-01-20T06:48:46.849Z,530.00
2023-01-20T06:49:43.883Z,493.00
2023-01-20T06:50:44.046Z,442.00
2023-01-20T06:51:45.597Z,400.00
2023-01-20T06:52:44.267Z,400.00
2023-01-20T06:53:44.174Z,426.00
2023-01-20T06:54:44.401Z,400.00
2023-01-20T06:55:44.125Z,400.00
2023-01-20T06:56:45.342Z,408.00
2023-01-20T06:57:42.451Z,400.00
2023-01-20T06:58:44.857Z,400.00
2023-01-20T07:01:31.759Z,500.00
2023-01-20T07:03:32.385Z,500.00
2023-01-20T07:04:36.132Z,500.00
2023-01-20T07:05:32.227Z,500.00
2023-01-20T07:08:44.127Z,500.00
2023-01-20T07:10:14.683Z,500.00
2023-01-20T07:10:44.910Z,500.00
2023-01-20T07:11:44.858Z,500.00
2023-01-20T07:12:44.718Z,500.00
2023-01-20T07:13:52.066Z,500.00
2023-01-20T07:16:49.228Z,500.00
2023-01-20T07:19:11.147Z,500.00
2023-01-20T07:22:38.136Z,500.00
2023-01-20T07:23:39.232Z,500.00
2023-01-20T07:24:39.371Z,500.00
2023-01-20T07:25:40.157Z,500.00
2023-01-20T07:26:41.927Z,500.00
2023-01-20T07:27:40.608Z,500.00
2023-01-20T07:28:39.418Z,500.00
2023-01-20T07:29:38.858Z,500.00
2023-01-20T07:30:38.861Z,500.00
2023-01-20T07:31:39.556Z,500.00
2023-01-20T07:32:39.596Z,500.00
2023-01-20T07:33:40.261Z,500.00
2023-01-20T07:34:41.132Z,500.00
2023-01-20T07:35:38.979Z,500.00
2023-01-20T07:36:39.215Z,500.00
2023-01-20T07:37:43.025Z,500.00
2023-01-20T07:38:36.834Z,500.00
2023-01-20T07:39:37.778Z,500.00
2023-01-20T07:40:38.450Z,500.00
2023-01-20T07:41:37.587Z,500.00
2023-01-20T07:42:37.493Z,500.00
2023-01-20T07:43:37.904Z,483.00
2023-01-20T07:44:37.735Z,477.00
2023-01-20T07:45:37.724Z,501.00
2023-01-20T07:46:38.410Z,486.00
2023-01-20T07:47:36.128Z,400.00
2023-01-20T07:48:37.339Z,400.00
2023-01-20T07:49:37.345Z,400.00
2023-01-20T07:50:36.868Z,400.00
2023-01-20T07:51:36.774Z,400.00
2023-01-20T07:52:36.678Z,400.00
2023-01-20T07:53:36.673Z,409.00
2023-01-20T07:54:37.680Z,476.00
2023-01-20T07:55:36.085Z,480.00
2023-01-20T07:56:36.742Z,443.00
2023-01-20T07:57:36.320Z,491.00
2023-01-20T07:58:36.953Z,474.00
2023-01-20T07:59:36.135Z,400.00
2023-01-20T08:00:36.394Z,400.00
2023-01-20T08:01:36.091Z,400.00
2023-01-20T08:02:37.484Z,400.00
2023-01-20T08:03:36.156Z,400.00
2023-01-20T08:04:36.089Z,400.00
2023-01-20T08:05:49.322Z,400.00
2023-01-20T08:06:37.018Z,401.00
2023-01-20T08:07:35.902Z,414.00
2023-01-20T08:08:35.814Z,436.00
2023-01-20T08:09:37.597Z,507.00
2023-01-20T08:10:39.626Z,582.00
2023-01-20T08:11:36.734Z,409.00
2023-01-20T08:12:45.059Z,429.00
2023-01-20T08:13:34.456Z,404.00
2023-01-20T08:14:37.737Z,414.00
2023-01-20T08:15:35.292Z,403.00
2023-01-20T08:16:35.924Z,415.00
2023-01-20T08:17:35.172Z,402.00
2023-01-20T08:18:37.183Z,400.00
2023-01-20T08:19:34.024Z,404.00
2023-01-20T08:21:16.896Z,411.00
2023-01-20T08:21:35.624Z,400.00
2023-01-20T08:22:42.339Z,400.00
2023-01-20T08:23:37.051Z,400.00
2023-01-20T08:24:33.740Z,400.00
2023-01-20T08:25:34.681Z,400.00
2023-01-20T08:26:34.571Z,400.00
2023-01-20T08:27:35.520Z,400.00
2023-01-20T08:28:34.458Z,400.00
2023-01-20T08:29:34.773Z,400.00
2023-01-20T08:31:34.417Z,400.00
2023-01-20T08:32:34.186Z,400.00
2023-01-20T08:33:34.433Z,400.00
2023-01-20T08:34:36.084Z,400.00
2023-01-20T08:37:22.042Z,500.00
2023-01-20T08:38:22.981Z,500.00
2023-01-20T08:39:22.955Z,500.00
2023-01-20T08:40:23.043Z,500.00
2023-01-20T08:41:26.713Z,500.00
2023-01-20T08:42:22.515Z,500.00
2023-01-20T08:43:23.975Z,500.00
2023-01-20T08:44:24.770Z,500.00
2023-01-20T08:45:22.488Z,500.00
2023-01-20T08:46:22.587Z,500.00
2023-01-20T08:47:23.670Z,576.00
2023-01-20T08:48:22.933Z,577.00
2023-01-20T08:49:36.430Z,577.00
2023-01-20T08:50:22.153Z,540.00
2023-01-20T08:51:22.152Z,519.00
2023-01-20T08:52:44.737Z,576.00
2023-01-20T08:53:21.964Z,555.00
2023-01-20T08:54:21.928Z,578.00
2023-01-20T08:55:23.464Z,576.00
2023-01-20T08:56:24.968Z,577.00
2023-01-20T08:57:20.941Z,577.00
2023-01-20T08:58:23.428Z,594.00
2023-01-20T08:59:22.949Z,580.00
2023-01-20T09:00:21.622Z,579.00
2023-01-20T09:01:21.569Z,594.00
2023-01-20T09:02:21.448Z,596.00
2023-01-20T09:03:24.485Z,607.00
2023-01-20T09:04:21.701Z,577.00
2023-01-20T09:05:21.256Z,583.00
2023-01-20T09:06:21.602Z,561.00
2023-01-20T09:07:22.399Z,562.00
2023-01-20T09:08:23.587Z,579.00
2023-01-20T09:09:20.017Z,577.00
2023-01-20T09:10:21.901Z,549.00
2023-01-20T09:11:20.882Z,481.00
2023-01-20T09:12:21.119Z,578.00
2023-01-20T09:13:19.767Z,577.00
2023-01-20T09:14:22.870Z,588.00
2023-01-20T09:15:20.967Z,583.00
2023-01-20T09:16:20.995Z,587.00
2023-01-20T09:17:19.789Z,570.00
2023-01-20T09:18:20.722Z,561.00
2023-01-20T09:19:20.742Z,513.00
2023-01-20T09:20:20.503Z,584.00
2023-01-20T09:21:20.260Z,644.00
2023-01-20T09:22:20.564Z,684.00
2023-01-20T09:23:20.149Z,764.00
2023-01-20T09:24:20.439Z,780.00
2023-01-20T09:25:20.004Z,749.00
2023-01-20T09:26:34.680Z,616.00
2023-01-20T09:27:19.928Z,595.00
2023-01-20T09:28:22.173Z,630.00
2023-01-20T09:29:19.774Z,621.00
2023-01-20T09:30:19.867Z,661.00
2023-01-20T09:31:19.752Z,756.00
2023-01-20T09:32:19.612Z,679.00
2023-01-20T09:33:19.581Z,586.00
2023-01-20T09:34:20.042Z,512.00
2023-01-20T09:35:19.500Z,462.00
2023-01-20T09:36:19.656Z,598.00
2023-01-20T09:37:19.462Z,869.00
2023-01-20T09:38:19.223Z,773.00
2023-01-20T09:39:19.156Z,768.00
2023-01-20T09:40:19.364Z,963.00
2023-01-20T09:41:22.285Z,685.00
2023-01-20T09:42:19.457Z,686.00
2023-01-20T09:43:18.943Z,701.00
2023-01-20T09:44:19.136Z,709.00
2023-01-20T09:45:18.821Z,823.00
2023-01-20T09:46:19.177Z,911.00
2023-01-20T09:47:18.933Z,959.00
2023-01-20T09:48:19.277Z,840.00
2023-01-20T09:49:20.444Z,892.00
2023-01-20T09:50:18.815Z,804.00
2023-01-20T09:51:18.523Z,890.00
2023-01-20T09:52:18.519Z,864.00
2023-01-20T09:53:18.377Z,595.00
2023-01-20T09:54:18.483Z,503.00
2023-01-20T09:55:18.484Z,549.00
2023-01-20T09:56:18.354Z,620.00
2023-01-20T09:57:19.695Z,538.00
2023-01-20T09:58:18.508Z,536.00
2023-01-20T09:59:18.537Z,521.00
2023-01-20T10:00:17.989Z,418.00
2023-01-20T10:01:18.099Z,400.00
2023-01-20T10:02:17.941Z,400.00
2023-01-20T10:03:17.903Z,400.00
2023-01-20T10:04:17.964Z,400.00
2023-01-20T10:05:18.021Z,425.00
2023-01-20T10:06:17.617Z,415.00
2023-01-20T10:07:17.692Z,500.00
2023-01-20T10:08:17.724Z,502.00
2023-01-20T10:09:17.390Z,501.00
2023-01-20T10:10:17.797Z,583.00
2023-01-20T10:11:17.275Z,504.00
2023-01-20T10:12:17.265Z,522.00
2023-01-20T10:13:17.651Z,529.00
2023-01-20T10:14:17.223Z,493.00
2023-01-20T10:15:18.964Z,590.00
2023-01-20T10:16:16.984Z,547.00
2023-01-20T10:17:16.906Z,554.00
2023-01-20T10:18:16.890Z,561.00
2023-01-20T10:19:16.682Z,571.00
2023-01-20T10:20:17.273Z,565.00
2023-01-20T10:21:16.532Z,597.00
2023-01-20T10:22:16.521Z,613.00
2023-01-20T10:23:16.922Z,625.00
2023-01-20T10:24:16.368Z,596.00
2023-01-20T10:25:16.310Z,611.00
2023-01-20T10:26:16.281Z,636.00
2023-01-20T10:27:16.035Z,693.00
2023-01-20T10:28:15.950Z,761.00
2023-01-20T10:29:15.979Z,831.00
2023-01-20T10:30:16.236Z,919.00
2023-01-20T10:31:15.820Z,1030.00
2023-01-20T10:32:15.642Z,1216.00
2023-01-20T10:33:15.555Z,1298.00
2023-01-20T10:34:15.446Z,1425.00
2023-01-20T10:35:15.932Z,1247.00
2023-01-20T10:36:15.286Z,1320.00
2023-01-20T10:37:15.186Z,1283.00
2023-01-20T10:38:15.408Z,1262.00
2023-01-20T10:39:15.450Z,1114.00
2023-01-20T10:40:14.947Z,1096.00
2023-01-20T10:41:16.697Z,910.00
2023-01-20T10:42:14.725Z,913.00
2023-01-20T10:43:14.959Z,941.00
2023-01-20T10:44:14.941Z,925.00
2023-01-20T10:45:14.914Z,889.00
2023-01-20T10:46:14.632Z,856.00
2023-01-20T10:47:14.307Z,1013.00
2023-01-20T10:48:15.436Z,1072.00
2023-01-20T10:49:14.479Z,1186.00
2023-01-20T10:50:14.043Z,827.00
2023-01-20T10:51:14.101Z,479.00
2023-01-20T10:52:14.039Z,400.00
2023-01-20T10:53:13.917Z,400.00
2023-01-20T10:54:13.957Z,400.00
2023-01-20T10:55:14.057Z,443.00
2023-01-20T10:56:13.774Z,516.00
2023-01-20T10:57:13.442Z,603.00
2023-01-20T10:58:13.483Z,584.00
2023-01-20T10:59:13.449Z,505.00
2023-01-20T11:00:13.482Z,505.00
2023-01-20T11:01:13.082Z,505.00
2023-01-20T11:02:13.052Z,540.00
2023-01-20T11:03:13.180Z,610.00
2023-01-20T11:04:13.048Z,815.00
2023-01-20T11:05:12.755Z,734.00
2023-01-20T11:06:12.763Z,706.00
2023-01-20T11:07:12.583Z,573.00
2023-01-20T11:08:12.525Z,484.00
2023-01-20T11:09:12.683Z,454.00
2023-01-20T11:10:12.453Z,461.00
2023-01-20T11:11:12.209Z,487.00
2023-01-20T11:12:12.114Z,530.00
2023-01-20T11:13:12.690Z,562.00
2023-01-20T11:14:11.950Z,542.00
2023-01-20T11:15:11.889Z,622.00
2023-01-20T11:16:11.814Z,663.00
2023-01-20T11:17:11.659Z,805.00
2023-01-20T11:18:11.684Z,883.00
2023-01-20T11:19:12.166Z,1086.00
2023-01-20T11:20:11.416Z,1153.00
2023-01-20T11:21:11.362Z,1358.00
2023-01-20T11:22:11.301Z,1462.00
2023-01-20T11:23:11.181Z,1312.00
2023-01-20T11:24:11.507Z,1182.00
2023-01-20T11:25:10.997Z,1197.00
2023-01-20T11:26:10.915Z,1267.00
2023-01-20T11:27:10.870Z,1369.00
2023-01-20T11:28:10.778Z,1540.00
2023-01-20T11:29:11.054Z,1840.00
2023-01-20T11:30:10.556Z,1780.00
2023-01-20T11:31:10.551Z,1879.00
2023-01-20T11:32:10.494Z,1930.00
2023-01-20T11:33:10.327Z,2124.00
2023-01-20T11:34:10.358Z,2332.00
2023-01-20T11:35:10.049Z,2324.00
2023-01-20T11:36:09.950Z,2384.00
2023-01-20T11:37:10.168Z,2218.00
2023-01-20T11:38:09.853Z,2403.00
2023-01-20T11:39:09.966Z,2375.00
2023-01-20T11:40:09.761Z,2350.00
2023-01-20T11:41:09.466Z,2170.00
2023-01-20T11:42:09.454Z,2355.00
2023-01-20T11:43:09.283Z,1912.00
2023-01-20T11:44:09.514Z,1959.00
2023-01-20T11:45:20.787Z,2017.00
2023-01-20T11:46:09.010Z,2020.00
2023-01-20T11:47:09.232Z,2039.00
2023-01-20T11:48:08.812Z,2063.00
2023-01-20T11:49:08.993Z,2213.00
2023-01-20T11:50:08.637Z,2391.00
2023-01-20T11:51:08.600Z,2585.00
2023-01-20T11:52:08.448Z,2576.00
2023-01-20T11:53:08.357Z,2460.00
2023-01-20T11:54:08.193Z,2146.00
2023-01-20T11:55:08.130Z,1996.00
2023-01-20T11:56:08.120Z,2072.00
2023-01-20T11:57:07.979Z,1971.00
2023-01-20T11:58:07.805Z,2071.00
2023-01-20T11:59:07.931Z,1995.00
2023-01-20T12:00:07.892Z,1900.00
2023-01-20T12:01:08.085Z,1870.00
2023-01-20T12:02:07.500Z,2014.00
2023-01-20T12:03:07.316Z,1413.00
2023-01-20T12:04:07.342Z,1394.00
2023-01-20T12:05:07.097Z,1245.00
2023-01-20T12:06:07.533Z,1310.00
2023-01-20T12:07:06.917Z,1242.00
2023-01-20T12:08:07.772Z,946.00
2023-01-20T12:09:06.975Z,908.00
2023-01-20T12:10:06.655Z,655.00
2023-01-20T12:11:06.662Z,606.00
2023-01-20T12:12:06.553Z,662.00
2023-01-20T12:13:06.326Z,829.00
2023-01-20T12:14:06.653Z,911.00
2023-01-20T12:15:06.122Z,637.00
2023-01-20T12:16:05.995Z,704.00
2023-01-20T12:17:05.882Z,688.00
2023-01-20T12:18:08.176Z,534.00
2023-01-20T12:19:05.654Z,423.00
2023-01-20T12:20:06.003Z,535.00
2023-01-20T12:21:05.576Z,543.00
2023-01-20T12:22:05.333Z,421.00
2023-01-20T12:23:05.276Z,404.00
2023-01-20T12:24:05.339Z,559.00
2023-01-20T12:25:05.063Z,619.00
2023-01-20T12:26:04.977Z,486.00
2023-01-20T12:27:04.844Z,499.00
2023-01-20T12:28:05.024Z,498.00
2023-01-20T12:29:04.747Z,493.00
2023-01-20T12:30:04.555Z,565.00
2023-01-20T12:31:04.619Z,621.00
2023-01-20T12:32:04.420Z,735.00
2023-01-20T12:33:04.256Z,626.00
2023-01-20T12:34:04.116Z,500.00
2023-01-20T12:35:04.042Z,543.00
2023-01-20T12:36:04.041Z,500.00
2023-01-20T12:37:04.190Z,454.00
2023-01-20T12:38:03.726Z,506.00
2023-01-20T12:39:03.706Z,508.00
2023-01-20T12:40:03.860Z,483.00
2023-01-20T12:41:03.548Z,426.00
2023-01-20T12:42:03.347Z,400.00
2023-01-20T12:43:03.187Z,400.00
2023-01-20T12:44:03.162Z,424.00
2023-01-20T12:45:03.537Z,457.00
2023-01-20T12:46:04.069Z,525.00
2023-01-20T12:47:02.867Z,526.00
2023-01-20T12:48:02.764Z,527.00
2023-01-20T12:49:02.627Z,631.00
2023-01-20T12:50:02.616Z,732.00
2023-01-20T12:51:02.984Z,907.00
2023-01-20T12:52:02.971Z,1142.00
2023-01-20T12:53:02.192Z,981.00
2023-01-20T12:54:02.127Z,893.00
2023-01-20T12:55:02.696Z,643.00
2023-01-20T12:56:01.915Z,621.00
2023-01-20T12:57:01.769Z,559.00
2023-01-20T12:58:01.739Z,593.00
2023-01-20T12:59:01.562Z,732.00
2023-01-20T13:00:01.562Z,654.00
2023-01-20T13:01:02.077Z,631.00
2023-01-20T13:02:01.274Z,641.00
2023-01-20T13:03:01.379Z,973.00
2023-01-20T13:04:01.057Z,677.00
2023-01-20T13:05:01.023Z,732.00
2023-01-20T13:06:01.185Z,870.00
2023-01-20T13:07:00.890Z,1197.00
2023-01-20T13:08:00.851Z,1367.00
2023-01-20T13:09:00.571Z,1317.00
2023-01-20T13:10:01.142Z,1502.00
2023-01-20T13:11:00.359Z,1346.00
2023-01-20T13:12:00.287Z,1088.00
2023-01-20T13:13:00.143Z,1165.00
2023-01-20T13:14:00.112Z,1101.00
2023-01-20T13:15:00.369Z,1237.00
2023-01-20T13:16:01.662Z,1291.00
2023-01-20T13:16:58.798Z,1040.00
2023-01-20T13:18:00.020Z,775.00
2023-01-20T13:18:59.631Z,638.00
2023-01-20T13:19:59.630Z,578.00
2023-01-20T13:20:59.410Z,512.00
2023-01-20T13:22:07.761Z,597.00
2023-01-20T13:22:59.185Z,599.00
2023-01-20T13:23:59.220Z,629.00
2023-01-20T13:24:59.130Z,641.00
2023-01-20T13:25:58.989Z,843.00
2023-01-20T13:26:58.782Z,1154.00
2023-01-20T13:27:58.788Z,1173.00
2023-01-20T13:28:58.564Z,991.00
2023-01-20T13:29:58.704Z,1040.00
2023-01-20T13:30:59.263Z,1226.00
2023-01-20T13:31:58.709Z,1370.00
2023-01-20T13:32:58.233Z,1151.00
2023-01-20T13:33:58.036Z,768.00
2023-01-20T13:34:57.954Z,870.00
2023-01-20T13:35:57.847Z,1012.00
2023-01-20T13:36:57.769Z,1409.00
2023-01-20T13:37:57.633Z,1386.00
2023-01-20T13:38:57.800Z,1404.00
2023-01-20T13:39:57.418Z,1203.00
2023-01-20T13:40:57.466Z,939.00
2023-01-20T13:41:57.567Z,1016.00
2023-01-20T13:42:57.331Z,1011.00
2023-01-20T13:43:57.062Z,1345.00
2023-01-20T13:44:57.036Z,1046.00
2023-01-20T13:45:56.832Z,784.00
2023-01-20T13:46:56.688Z,616.00
2023-01-20T13:47:58.193Z,557.00
2023-01-20T13:48:56.603Z,816.00
2023-01-20T13:49:56.629Z,1562.00
2023-01-20T13:50:56.397Z,1688.00
2023-01-20T13:51:56.455Z,1549.00
2023-01-20T13:52:56.242Z,1735.00
2023-01-20T13:53:56.590Z,1489.00
2023-01-20T13:54:56.800Z,1433.00
2023-01-20T13:55:56.080Z,1436.00
2023-01-20T13:56:56.690Z,1755.00
2023-01-20T13:57:55.958Z,2087.00
2023-01-20T13:58:55.982Z,2029.00
2023-01-20T13:59:57.572Z,1883.00
2023-01-20T14:00:54.768Z,1322.00
2023-01-20T14:01:55.699Z,1470.00
2023-01-20T14:02:56.696Z,1696.00
2023-01-20T14:03:55.607Z,1671.00
2023-01-20T14:04:56.222Z,1459.00
2023-01-20T14:05:55.852Z,768.00
2023-01-20T14:06:54.687Z,587.00
2023-01-20T14:07:55.743Z,1065.00
2023-01-20T14:08:55.439Z,685.00
2023-01-20T14:09:55.293Z,559.00
2023-01-20T14:10:58.420Z,617.00
2023-01-20T14:11:55.185Z,522.00
2023-01-20T14:12:55.546Z,591.00
2023-01-20T14:15:43.811Z,500.00
2023-01-20T14:16:45.063Z,500.00
2023-01-20T14:17:44.611Z,500.00
2023-01-20T14:18:44.806Z,500.00
2023-01-20T14:19:44.354Z,500.00
2023-01-20T14:20:44.385Z,536.00
2023-01-20T14:21:44.513Z,675.00
2023-01-20T14:22:44.328Z,436.00
2023-01-20T14:23:44.514Z,456.00
2023-01-20T14:24:44.585Z,557.00
2023-01-20T14:25:44.039Z,532.00
2023-01-20T14:26:43.989Z,559.00
2023-01-20T14:27:43.921Z,785.00
2023-01-20T14:28:42.863Z,588.00
2023-01-20T14:29:43.883Z,560.00
2023-01-20T14:30:43.896Z,591.00
2023-01-20T14:31:45.913Z,704.00
2023-01-20T14:34:38.015Z,500.00
2023-01-20T14:35:38.738Z,500.00
2023-01-20T14:36:38.494Z,500.00
2023-01-20T14:37:38.956Z,500.00
2023-01-20T14:38:55.500Z,500.00
2023-01-20T14:39:38.664Z,500.00
2023-01-20T14:40:38.381Z,500.00
2023-01-20T14:41:38.386Z,500.00
2023-01-20T14:42:38.276Z,500.00
2023-01-20T14:43:38.272Z,500.00
2023-01-20T14:44:38.268Z,563.00
2023-01-20T14:45:38.533Z,607.00
2023-01-20T14:46:38.405Z,1034.00
2023-01-20T14:47:38.324Z,1514.00
2023-01-20T14:48:38.105Z,1640.00
2023-01-20T14:49:38.208Z,1562.00
2023-01-20T14:50:38.112Z,1190.00
2023-01-20T14:51:38.030Z,962.00
2023-01-20T14:52:38.022Z,749.00
2023-01-20T14:53:37.874Z,698.00
2023-01-20T14:54:37.916Z,759.00
2023-01-20T14:55:37.814Z,955.00
2023-01-20T14:56:37.737Z,1391.00
2023-01-20T14:57:37.683Z,1501.00
2023-01-20T14:58:37.606Z,1155.00
2023-01-20T14:59:37.550Z,882.00
2023-01-20T15:00:37.848Z,913.00
2023-01-20T15:01:39.393Z,831.00
2023-01-20T15:02:37.418Z,773.00
2023-01-20T15:03:37.300Z,786.00
2023-01-20T15:04:37.409Z,925.00
2023-01-20T15:05:37.512Z,810.00
2023-01-20T15:06:38.789Z,1215.00
2023-01-20T15:07:37.363Z,1415.00
2023-01-20T15:08:37.201Z,1326.00
2023-01-20T15:09:36.838Z,1443.00
2023-01-20T15:10:36.743Z,1561.00
2023-01-20T15:11:36.933Z,1353.00
2023-01-20T15:12:36.586Z,1075.00
2023-01-20T15:13:37.815Z,1116.00
2023-01-20T15:14:36.570Z,953.00
2023-01-20T15:15:36.414Z,1008.00
2023-01-20T15:16:36.462Z,1436.00
2023-01-20T15:17:36.604Z,2035.00
2023-01-20T15:18:36.193Z,2097.00
2023-01-20T15:19:36.273Z,2286.00
2023-01-20T15:20:36.291Z,2322.00
2023-01-20T15:21:36.373Z,2669.00
2023-01-20T15:22:36.237Z,2794.00
2023-01-20T15:23:35.852Z,2995.00
2023-01-20T15:24:36.238Z,3143.00
2023-01-20T15:25:36.074Z,2698.00
2023-01-20T15:26:35.834Z,2334.00
2023-01-20T15:27:35.780Z,1669.00
2023-01-20T15:28:35.598Z,1361.00
2023-01-20T15:29:35.396Z,1284.00
2023-01-20T15:30:35.465Z,1224.00
2023-01-20T15:31:35.273Z,1301.00
2023-01-20T15:32:35.269Z,1463.00
2023-01-20T15:33:35.337Z,1522.00
2023-01-20T15:34:35.029Z,1521.00
2023-01-20T15:35:35.202Z,1462.00
2023-01-20T15:36:35.167Z,1644.00
2023-01-20T15:37:34.849Z,1658.00
2023-01-20T15:38:38.073Z,1546.00
2023-01-20T15:39:35.405Z,1494.00
2023-01-20T15:40:40.606Z,1596.00
2023-01-20T15:41:34.519Z,1553.00
2023-01-20T15:42:34.478Z,1554.00
2023-01-20T15:43:36.457Z,1392.00
2023-01-20T15:44:35.547Z,1434.00
2023-01-20T15:45:34.517Z,1476.00
2023-01-20T15:46:34.152Z,1554.00
2023-01-20T15:47:34.301Z,1633.00
2023-01-20T15:48:35.911Z,2017.00
2023-01-20T15:49:33.871Z,3061.00